createdAt,value
2019-03-05T00:00:36.318Z,-435.86
2019-03-05T00:01:36.584Z,-434.04
2019-03-05T00:02:36.888Z,-433.23
2019-03-05T00:03:37.101Z,-434.18
2019-03-05T00:04:37.417Z,-435.65
2019-03-05T00:05:37.687Z,-432.15
2019-03-05T00:06:37.946Z,-436.12
2019-03-05T00:07:38.239Z,-431.99
2019-03-05T00:08:38.496Z,-437.44
2019-03-05T00:09:38.801Z,-435.79
2019-03-05T00:10:39.134Z,-432.65
2019-03-05T00:11:39.309Z,-436.49
2019-03-05T00:12:39.603Z,-437.14
2019-03-05T00:13:39.863Z,-434.67
2019-03-05T00:14:40.156Z,-437.25
2019-03-05T00:15:40.443Z,-436.27
2019-03-05T00:16:40.715Z,-433.61
2019-03-05T00:17:41.009Z,-435.86
2019-03-05T00:18:41.292Z,-436.69
2019-03-05T00:19:41.619Z,-436.12
2019-03-05T00:20:41.830Z,-436.56
2019-03-05T00:21:42.101Z,-433.97
2019-03-05T00:22:42.381Z,-435.99
2019-03-05T00:23:42.673Z,-433.84
2019-03-05T00:24:43.881Z,-436.95
2019-03-05T00:25:43.244Z,-437.20
2019-03-05T00:26:43.498Z,-435.66
2019-03-05T00:27:43.903Z,-437.52
2019-03-05T00:28:44.083Z,-437.03
2019-03-05T00:29:44.364Z,-432.49
2019-03-05T00:30:44.605Z,-435.09
2019-03-05T00:31:44.863Z,-437.89
2019-03-05T00:32:45.162Z,-441.18
2019-03-05T00:33:45.681Z,-438.84
2019-03-05T00:34:45.767Z,-436.90
2019-03-05T00:35:46.126Z,-434.81
2019-03-05T00:36:46.240Z,-437.38
2019-03-05T00:37:46.532Z,-434.22
2019-03-05T00:38:46.827Z,-435.45
2019-03-05T00:39:47.107Z,-433.99
2019-03-05T00:40:47.377Z,-434.08
2019-03-05T00:41:47.636Z,-436.83
2019-03-05T00:42:47.897Z,-435.39
2019-03-05T00:43:48.243Z,-436.52
2019-03-05T00:44:48.467Z,-437.08
2019-03-05T00:45:48.771Z,-432.52
2019-03-05T00:46:49.006Z,-434.75
2019-03-05T00:47:49.265Z,-435.94
2019-03-05T00:48:49.552Z,-431.73
2019-03-05T00:49:49.858Z,-434.40
2019-03-05T00:50:50.119Z,-437.72
2019-03-05T00:51:50.415Z,-435.09
2019-03-05T00:52:50.717Z,-464.05
2019-03-05T00:53:50.934Z,-463.19
2019-03-05T00:54:51.241Z,-462.99
2019-03-05T00:55:51.500Z,-462.75
2019-03-05T00:56:51.760Z,-461.41
2019-03-05T00:57:52.035Z,-463.97
2019-03-05T00:58:52.323Z,-459.48
2019-03-05T00:59:52.638Z,-459.44
2019-03-05T01:00:52.987Z,-461.33
2019-03-05T01:01:53.145Z,-462.58
2019-03-05T01:02:53.420Z,-458.96
2019-03-05T01:03:53.711Z,-460.99
2019-03-05T01:04:53.982Z,-461.92
2019-03-05T01:05:54.265Z,-459.26
2019-03-05T01:06:54.522Z,-462.61
2019-03-05T01:07:54.795Z,-464.49
2019-03-05T01:08:55.232Z,-459.76
2019-03-05T01:09:55.410Z,-431.78
2019-03-05T01:10:55.698Z,-462.92
2019-03-05T01:11:55.953Z,-439.02
2019-03-05T01:12:56.226Z,-464.19
2019-03-05T01:13:56.524Z,-439.63
2019-03-05T01:14:56.818Z,-466.70
2019-03-05T01:15:57.059Z,-438.37
2019-03-05T01:16:57.434Z,-461.50
2019-03-05T01:17:57.590Z,-464.60
2019-03-05T01:18:57.886Z,-460.96
2019-03-05T01:19:58.184Z,-464.57
2019-03-05T01:20:58.406Z,-463.07
2019-03-05T01:21:58.683Z,-461.48
2019-03-05T01:22:58.975Z,-460.63
2019-03-05T01:23:59.269Z,-436.29
2019-03-05T01:24:59.648Z,-435.90
2019-03-05T01:25:59.780Z,-437.12
2019-03-05T01:27:00.065Z,-439.67
2019-03-05T01:28:00.367Z,-435.94
2019-03-05T01:29:00.684Z,-436.12
2019-03-05T01:30:00.951Z,-434.87
2019-03-05T01:31:01.218Z,-435.92
2019-03-05T01:32:01.505Z,-434.93
2019-03-05T01:33:01.814Z,-438.70
2019-03-05T01:34:02.167Z,-439.32
2019-03-05T01:35:02.385Z,-437.99
2019-03-05T01:36:02.612Z,-438.00
2019-03-05T01:37:02.907Z,-436.18
2019-03-05T01:38:03.151Z,-434.91
2019-03-05T01:39:03.449Z,-437.56
2019-03-05T01:40:03.739Z,-435.83
2019-03-05T01:41:04.000Z,-437.80
2019-03-05T01:42:04.428Z,-438.99
2019-03-05T01:43:04.527Z,-437.85
2019-03-05T01:44:04.828Z,-438.99
2019-03-05T01:45:05.128Z,-437.23
2019-03-05T01:46:05.381Z,-439.29
2019-03-05T01:47:05.668Z,-436.88
2019-03-05T01:48:05.935Z,-436.78
2019-03-05T01:49:06.218Z,-434.50
2019-03-05T01:50:06.605Z,-436.68
2019-03-05T01:51:06.761Z,-437.25
2019-03-05T01:52:07.048Z,-435.84
2019-03-05T01:53:07.307Z,-437.81
2019-03-05T01:54:07.608Z,-436.02
2019-03-05T01:55:07.854Z,-436.17
2019-03-05T01:56:08.144Z,-436.26
2019-03-05T01:57:08.429Z,-437.44
2019-03-05T01:58:08.775Z,-435.35
2019-03-05T01:59:08.969Z,-434.98
2019-03-05T02:00:11.657Z,-436.36
2019-03-05T02:01:09.501Z,-434.02
2019-03-05T02:02:09.795Z,-436.32
2019-03-05T02:03:10.054Z,-431.56
2019-03-05T02:04:10.349Z,-434.10
2019-03-05T02:05:10.611Z,-437.48
2019-03-05T02:06:10.951Z,-433.65
2019-03-05T02:07:11.181Z,-434.31
2019-03-05T02:08:11.447Z,-436.00
2019-03-05T02:09:11.729Z,-436.54
2019-03-05T02:10:12.233Z,-434.07
2019-03-05T02:11:12.282Z,-438.36
2019-03-05T02:12:12.569Z,-433.56
2019-03-05T02:13:12.801Z,-434.80
2019-03-05T02:14:13.169Z,-431.66
2019-03-05T02:15:13.474Z,-435.89
2019-03-05T02:16:13.665Z,-432.20
2019-03-05T02:17:13.931Z,-437.38
2019-03-05T02:18:14.207Z,-435.65
2019-03-05T02:19:14.519Z,-435.14
2019-03-05T02:20:14.779Z,-434.04
2019-03-05T02:21:15.076Z,-435.48
2019-03-05T02:22:15.340Z,-436.66
2019-03-05T02:23:15.738Z,-432.22
2019-03-05T02:24:15.915Z,-433.88
2019-03-05T02:25:16.196Z,-433.88
2019-03-05T02:26:16.497Z,-432.06
2019-03-05T02:27:16.763Z,-435.09
2019-03-05T02:28:17.005Z,-434.53
2019-03-05T02:29:17.300Z,-431.17
2019-03-05T02:30:17.607Z,-432.38
2019-03-05T02:31:17.986Z,-433.16
2019-03-05T02:32:18.158Z,-435.22
2019-03-05T02:33:18.424Z,-434.07
2019-03-05T02:34:25.787Z,-434.24
2019-03-05T02:35:18.959Z,-431.21
2019-03-05T02:36:19.284Z,-434.24
2019-03-05T02:37:19.554Z,-432.95
2019-03-05T02:38:19.808Z,-434.30
2019-03-05T02:39:20.131Z,-431.90
2019-03-05T02:40:20.319Z,-432.95
2019-03-05T02:41:20.657Z,-430.56
2019-03-05T02:42:20.922Z,-436.50
2019-03-05T02:43:21.190Z,-436.44
2019-03-05T02:44:21.479Z,-432.87
2019-03-05T02:45:21.765Z,-434.19
2019-03-05T02:46:22.049Z,-432.94
2019-03-05T02:47:22.342Z,-435.06
2019-03-05T02:48:22.650Z,-435.26
2019-03-05T02:49:22.871Z,-430.06
2019-03-05T02:50:23.165Z,-433.99
2019-03-05T02:51:23.434Z,-434.96
2019-03-05T02:52:23.705Z,-431.69
2019-03-05T02:53:23.982Z,-432.48
2019-03-05T02:54:24.265Z,-432.74
2019-03-05T02:55:24.559Z,-433.64
2019-03-05T02:56:24.963Z,-433.12
2019-03-05T02:57:25.108Z,-430.74
2019-03-05T02:58:25.387Z,-433.06
2019-03-05T02:59:25.651Z,-432.86
2019-03-05T03:00:25.947Z,-431.66
2019-03-05T03:01:26.243Z,-435.96
2019-03-05T03:02:26.504Z,-432.42
2019-03-05T03:03:26.755Z,-431.47
2019-03-05T03:04:27.170Z,-435.16
2019-03-05T03:05:27.317Z,-432.37
2019-03-05T03:06:27.619Z,-434.46
2019-03-05T03:07:27.880Z,-429.70
2019-03-05T03:08:28.121Z,-432.36
2019-03-05T03:09:28.417Z,-433.09
2019-03-05T03:10:28.712Z,-433.16
2019-03-05T03:11:28.995Z,-431.52
2019-03-05T03:12:29.319Z,-433.00
2019-03-05T03:13:29.510Z,-432.81
2019-03-05T03:14:29.775Z,-430.13
2019-03-05T03:15:30.081Z,-431.37
2019-03-05T03:16:30.657Z,-431.75
2019-03-05T03:17:30.642Z,-432.37
2019-03-05T03:18:30.894Z,-432.19
2019-03-05T03:19:31.163Z,-431.83
2019-03-05T03:20:31.711Z,-432.49
2019-03-05T03:21:31.747Z,-430.75
2019-03-05T03:22:32.008Z,-430.48
2019-03-05T03:23:32.277Z,-434.51
2019-03-05T03:24:32.546Z,-433.98
2019-03-05T03:25:32.819Z,-431.96
2019-03-05T03:26:33.109Z,-433.07
2019-03-05T03:27:33.390Z,-430.05
2019-03-05T03:28:33.672Z,-432.12
2019-03-05T03:29:34.041Z,-429.90
2019-03-05T03:30:34.203Z,-435.27
2019-03-05T03:31:34.512Z,-432.23
2019-03-05T03:32:34.770Z,-434.25
2019-03-05T03:33:35.049Z,-428.47
2019-03-05T03:34:35.396Z,-434.18
2019-03-05T03:35:35.603Z,-431.99
2019-03-05T03:36:35.873Z,-427.84
2019-03-05T03:37:36.262Z,-434.73
2019-03-05T03:38:36.418Z,-433.02
2019-03-05T03:39:36.699Z,-432.97
2019-03-05T03:40:36.988Z,-433.54
2019-03-05T03:41:37.257Z,-434.64
2019-03-05T03:42:37.539Z,-434.51
2019-03-05T03:43:37.795Z,-431.71
2019-03-05T03:44:38.077Z,-435.89
2019-03-05T03:45:38.404Z,-435.49
2019-03-05T03:46:38.611Z,-433.44
2019-03-05T03:47:38.889Z,-434.71
2019-03-05T03:48:39.175Z,-434.31
2019-03-05T03:49:39.444Z,-437.31
2019-03-05T03:50:39.736Z,-435.07
2019-03-05T03:51:40.029Z,-434.58
2019-03-05T03:52:40.270Z,-433.71
2019-03-05T03:53:40.565Z,-435.37
2019-03-05T03:54:40.802Z,-438.41
2019-03-05T03:55:41.095Z,-434.11
2019-03-05T03:56:41.547Z,-435.29
2019-03-05T03:57:41.633Z,-435.24
2019-03-05T03:58:41.900Z,-434.73
2019-03-05T03:59:42.191Z,-433.54
2019-03-05T04:00:42.543Z,-437.11
2019-03-05T04:01:42.949Z,-437.94
2019-03-05T04:02:43.097Z,-436.22
2019-03-05T04:03:43.339Z,-437.33
2019-03-05T04:04:43.608Z,-436.29
2019-03-05T04:05:43.916Z,-435.32
2019-03-05T04:06:44.188Z,-435.39
2019-03-05T04:07:44.447Z,-435.07
2019-03-05T04:08:44.741Z,-434.99
2019-03-05T04:09:44.989Z,-434.67
2019-03-05T04:10:45.345Z,-435.66
2019-03-05T04:11:45.486Z,-436.53
2019-03-05T04:12:45.769Z,-431.66
2019-03-05T04:13:46.029Z,-436.36
2019-03-05T04:14:46.300Z,-439.49
2019-03-05T04:15:46.632Z,-435.79
2019-03-05T04:16:47.147Z,-436.51
2019-03-05T04:17:47.115Z,-437.01
2019-03-05T04:18:47.791Z,-435.90
2019-03-05T04:19:47.703Z,-434.15
2019-03-05T04:20:48.030Z,-436.05
2019-03-05T04:21:48.274Z,-432.43
2019-03-05T04:22:48.549Z,-433.28
2019-03-05T04:23:48.847Z,-435.07
2019-03-05T04:24:49.102Z,-432.79
2019-03-05T04:25:49.408Z,-435.12
2019-03-05T04:26:49.718Z,-434.40
2019-03-05T04:27:49.912Z,-434.15
2019-03-05T04:28:50.212Z,-432.69
2019-03-05T04:29:50.470Z,-431.50
2019-03-05T04:30:50.777Z,-434.85
2019-03-05T04:31:51.033Z,-435.00
2019-03-05T04:32:51.299Z,-462.18
2019-03-05T04:33:51.588Z,-459.74
2019-03-05T04:34:51.895Z,-460.70
2019-03-05T04:35:52.146Z,-458.66
2019-03-05T04:36:52.424Z,-458.21
2019-03-05T04:37:52.681Z,-460.63
2019-03-05T04:38:52.973Z,-462.14
2019-03-05T04:39:53.234Z,-455.25
2019-03-05T04:40:53.524Z,-459.03
2019-03-05T04:41:53.820Z,-458.81
2019-03-05T04:42:54.058Z,-458.09
2019-03-05T04:43:54.487Z,-458.49
2019-03-05T04:44:54.619Z,-458.73
2019-03-05T04:45:54.924Z,-458.99
2019-03-05T04:46:55.167Z,-460.14
2019-03-05T04:47:55.437Z,-459.13
2019-03-05T04:48:55.735Z,-459.76
2019-03-05T04:49:56.012Z,-457.44
2019-03-05T04:50:56.298Z,-457.72
2019-03-05T04:51:56.681Z,-456.93
2019-03-05T04:52:56.852Z,-461.51
2019-03-05T04:53:57.124Z,-457.77
2019-03-05T04:54:57.392Z,-460.85
2019-03-05T04:55:57.715Z,-456.29
2019-03-05T04:56:57.941Z,-452.78
2019-03-05T04:57:58.220Z,-448.80
2019-03-05T04:58:58.499Z,-458.76
2019-03-05T04:59:58.837Z,-454.88
2019-03-05T05:00:59.063Z,-455.98
2019-03-05T05:01:59.323Z,-460.05
2019-03-05T05:02:59.629Z,-455.63
2019-03-05T05:03:59.896Z,-456.45
2019-03-05T05:05:00.329Z,-455.77
2019-03-05T05:06:00.427Z,-454.00
2019-03-05T05:07:00.722Z,-456.06
2019-03-05T05:08:01.051Z,-459.95
2019-03-05T05:09:01.266Z,-458.03
2019-03-05T05:10:01.521Z,-456.92
2019-03-05T05:11:01.794Z,-457.00
2019-03-05T05:12:02.106Z,-458.60
2019-03-05T05:13:02.410Z,-459.15
2019-03-05T05:14:02.660Z,-456.44
2019-03-05T05:15:02.919Z,-457.68
2019-03-05T05:16:03.216Z,-456.42
2019-03-05T05:17:03.593Z,-458.56
2019-03-05T05:18:03.777Z,-457.85
2019-03-05T05:19:04.053Z,-458.07
2019-03-05T05:20:04.310Z,-453.38
2019-03-05T05:21:04.587Z,-453.67
2019-03-05T05:22:04.868Z,-457.67
2019-03-05T05:23:05.158Z,-458.71
2019-03-05T05:24:05.454Z,-459.18
2019-03-05T05:25:05.830Z,-457.34
2019-03-05T05:26:05.967Z,-457.40
2019-03-05T05:27:06.252Z,-457.75
2019-03-05T05:28:06.535Z,-455.38
2019-03-05T05:29:07.049Z,-456.50
2019-03-05T05:30:07.082Z,-457.67
2019-03-05T05:31:07.368Z,-451.28
2019-03-05T05:32:07.687Z,-453.53
2019-03-05T05:33:07.990Z,-459.00
2019-03-05T05:34:08.189Z,-458.82
2019-03-05T05:35:08.459Z,-454.93
2019-03-05T05:36:32.688Z,-453.00
2019-03-05T05:37:23.819Z,-454.25
2019-03-05T05:38:35.830Z,-454.66
2019-03-05T05:39:24.986Z,-457.03
2019-03-05T05:40:26.958Z,-459.24
2019-03-05T05:41:43.734Z,-455.48
2019-03-05T05:42:30.807Z,-452.92
2019-03-05T05:43:42.223Z,-454.56
2019-03-05T05:44:51.374Z,-456.23
2019-03-05T05:45:29.314Z,-458.12
2019-03-05T05:46:42.311Z,-459.53
2019-03-05T05:48:05.927Z,-453.92
2019-03-05T05:54:39.199Z,-370.01
2019-03-05T05:56:02.789Z,-430.09
2019-03-05T05:56:44.976Z,-431.08
2019-03-05T05:57:42.359Z,-429.88
2019-03-05T05:58:52.690Z,-429.45
2019-03-05T05:59:49.653Z,-427.79
2019-03-05T06:00:49.289Z,-429.00
2019-03-05T06:01:57.360Z,-429.59
2019-03-05T06:03:17.610Z,-432.93
2019-03-05T06:03:57.583Z,-428.98
2019-03-05T06:05:04.382Z,-429.35
2019-03-05T06:06:12.276Z,-429.07
2019-03-05T06:07:36.848Z,-429.43
2019-03-05T06:08:14.292Z,-434.27
2019-03-05T06:09:00.907Z,-432.84
2019-03-05T06:10:16.286Z,-429.40
2019-03-05T06:10:56.257Z,-425.83
2019-03-05T06:12:00.779Z,-427.64
2019-03-05T06:13:20.586Z,-426.83
2019-03-05T06:14:09.373Z,-428.83
2019-03-05T06:15:08.446Z,-431.90
2019-03-05T06:16:41.108Z,-433.76
2019-03-05T06:18:30.868Z,-370.31
2019-03-05T06:19:42.114Z,-430.07
2019-03-05T06:20:37.022Z,-432.46
2019-03-05T06:21:55.694Z,-434.60
2019-03-05T06:23:06.436Z,-432.68
2019-03-05T06:24:03.026Z,-433.01
2019-03-05T06:25:46.292Z,-353.92
2019-03-05T06:26:46.578Z,-428.87
2019-03-05T06:27:46.831Z,-432.57
2019-03-05T06:28:47.711Z,-430.60
2019-03-05T06:29:47.415Z,-424.83
2019-03-05T06:30:47.730Z,-427.60
2019-03-05T06:31:47.946Z,-429.30
2019-03-05T06:32:48.192Z,-428.41
2019-03-05T06:33:48.509Z,-428.95
2019-03-05T06:34:48.774Z,-427.53
2019-03-05T06:35:49.037Z,-431.01
2019-03-05T06:36:49.335Z,-430.70
2019-03-05T06:37:49.650Z,-431.89
2019-03-05T06:38:49.892Z,-429.97
2019-03-05T06:39:50.226Z,-427.93
2019-03-05T06:40:50.456Z,-430.53
2019-03-05T06:41:50.732Z,-429.53
2019-03-05T06:42:51.194Z,-431.15
2019-03-05T06:43:51.298Z,-428.00
2019-03-05T06:44:51.566Z,-431.52
2019-03-05T06:45:51.846Z,-428.86
2019-03-05T06:46:52.113Z,-425.90
2019-03-05T06:47:52.527Z,-428.70
2019-03-05T06:48:52.675Z,-429.85
2019-03-05T06:49:52.974Z,-429.73
2019-03-05T06:50:53.232Z,-427.16
2019-03-05T06:51:53.515Z,-427.57
2019-03-05T06:52:53.815Z,-428.70
2019-03-05T06:53:54.153Z,-429.33
2019-03-05T06:54:54.364Z,-427.47
2019-03-05T06:55:54.724Z,-452.74
2019-03-05T06:56:54.907Z,-453.78
2019-03-05T06:57:55.231Z,-455.70
2019-03-05T06:58:55.462Z,-453.81
2019-03-05T06:59:55.755Z,-451.42
2019-03-05T07:00:56.024Z,-453.19
2019-03-05T07:01:56.286Z,-453.98
2019-03-05T07:02:56.600Z,-454.81
2019-03-05T07:03:56.909Z,-454.75
2019-03-05T07:04:57.114Z,-448.66
2019-03-05T07:05:57.383Z,-445.95
2019-03-05T07:06:57.638Z,-451.65
2019-03-05T07:07:57.938Z,-452.28
2019-03-05T07:08:58.239Z,-451.16
2019-03-05T07:09:58.493Z,-447.24
2019-03-05T07:10:58.761Z,-449.50
2019-03-05T07:11:59.078Z,-452.03
2019-03-05T07:12:59.359Z,-454.60
2019-03-05T07:13:59.599Z,-454.74
2019-03-05T07:15:00.355Z,-455.94
2019-03-05T07:16:00.137Z,-454.83
2019-03-05T07:17:00.413Z,-451.11
2019-03-05T07:18:00.705Z,-453.33
2019-03-05T07:19:00.983Z,-453.89
2019-03-05T07:20:01.271Z,-453.39
2019-03-05T07:21:01.603Z,-448.76
2019-03-05T07:22:01.784Z,-452.20
2019-03-05T07:23:02.068Z,-453.22
2019-03-05T07:24:02.350Z,-450.08
2019-03-05T07:25:02.636Z,-450.85
2019-03-05T07:26:02.894Z,-450.90
2019-03-05T07:27:03.164Z,-455.76
2019-03-05T07:28:03.460Z,-455.16
2019-03-05T07:29:03.852Z,-451.65
2019-03-05T07:30:04.009Z,-452.25
2019-03-05T07:31:04.257Z,-461.93
2019-03-05T07:32:04.538Z,-462.77
2019-03-05T07:33:04.832Z,-464.47
2019-03-05T07:34:05.108Z,-460.82
2019-03-05T07:35:05.388Z,-455.67
2019-03-05T07:36:05.642Z,-456.66
2019-03-05T07:37:05.961Z,-456.76
2019-03-05T07:38:06.226Z,-461.88
2019-03-05T07:39:06.460Z,-459.55
2019-03-05T07:40:06.767Z,-457.27
2019-03-05T07:41:07.014Z,-462.72
2019-03-05T07:42:07.303Z,-460.70
2019-03-05T07:43:07.603Z,-455.81
2019-03-05T07:44:07.881Z,-456.87
2019-03-05T07:45:08.162Z,-451.56
2019-03-05T07:46:08.377Z,-459.42
2019-03-05T07:47:08.685Z,-463.29
2019-03-05T07:48:08.973Z,-456.33
2019-03-05T07:49:09.232Z,-461.58
2019-03-05T07:50:09.532Z,-459.96
2019-03-05T07:51:09.788Z,-456.85
2019-03-05T07:52:10.044Z,-453.65
2019-03-05T07:53:10.393Z,-459.21
2019-03-05T07:54:10.703Z,-458.29
2019-03-05T07:55:13.531Z,-459.37
2019-03-05T07:56:11.166Z,-462.18
2019-03-05T07:57:11.445Z,-463.12
2019-03-05T07:58:11.786Z,-458.82
2019-03-05T07:59:12.014Z,-460.98
2019-03-05T08:00:12.295Z,-465.77
2019-03-05T08:01:21.776Z,-462.68
2019-03-05T08:02:13.938Z,-462.00
2019-03-05T08:03:13.161Z,-463.33
2019-03-05T08:04:13.395Z,-462.66
2019-03-05T08:05:13.674Z,-457.81
2019-03-05T08:06:13.970Z,-458.78
2019-03-05T08:07:14.218Z,-461.00
2019-03-05T08:08:18.864Z,-461.31
2019-03-05T08:09:15.788Z,-460.99
2019-03-05T08:10:15.113Z,-461.77
2019-03-05T08:11:15.338Z,-458.85
2019-03-05T08:12:15.607Z,-457.96
2019-03-05T08:13:15.887Z,-458.42
2019-03-05T08:14:16.150Z,-460.50
2019-03-05T08:15:16.476Z,-456.08
2019-03-05T08:16:16.737Z,-457.63
2019-03-05T08:17:16.996Z,-459.61
2019-03-05T08:18:17.348Z,-433.77
2019-03-05T08:19:17.505Z,-433.64
2019-03-05T08:20:17.831Z,-433.74
2019-03-05T08:21:18.107Z,-430.89
2019-03-05T08:22:18.355Z,-431.94
2019-03-05T08:23:18.663Z,-435.46
2019-03-05T08:24:18.919Z,-431.80
2019-03-05T08:25:19.215Z,-429.29
2019-03-05T08:26:19.544Z,-433.11
2019-03-05T08:27:19.812Z,-431.17
2019-03-05T08:28:20.055Z,-433.45
2019-03-05T08:29:20.329Z,-431.89
2019-03-05T08:30:20.603Z,-435.73
2019-03-05T08:31:20.879Z,-438.90
2019-03-05T08:32:21.141Z,-436.22
2019-03-05T08:33:21.442Z,-432.22
2019-03-05T08:34:21.699Z,-434.40
2019-03-05T08:35:22.095Z,-434.65
2019-03-05T08:36:22.271Z,-435.57
2019-03-05T08:37:22.524Z,-432.30
2019-03-05T08:38:22.816Z,-435.76
2019-03-05T08:39:23.078Z,-435.71
2019-03-05T08:40:23.391Z,-431.44
2019-03-05T08:41:23.636Z,-434.93
2019-03-05T08:42:23.915Z,-434.78
2019-03-05T08:43:24.289Z,-435.15
2019-03-05T08:44:24.464Z,-436.27
2019-03-05T08:45:29.460Z,-438.22
2019-03-05T08:46:25.040Z,-436.33
2019-03-05T08:47:25.282Z,-434.39
2019-03-05T08:48:25.583Z,-437.84
2019-03-05T08:49:25.852Z,-432.45
2019-03-05T08:50:26.178Z,-435.73
2019-03-05T08:51:26.472Z,-436.01
2019-03-05T08:52:26.651Z,-432.98
2019-03-05T08:53:26.929Z,-434.65
2019-03-05T08:54:27.443Z,-437.02
2019-03-05T08:55:27.526Z,-436.84
2019-03-05T08:56:27.775Z,-424.94
2019-03-05T08:57:28.049Z,-437.38
2019-03-05T08:58:28.333Z,-439.54
2019-03-05T08:59:28.621Z,-437.91
2019-03-05T09:00:28.944Z,-434.03
2019-03-05T09:01:29.187Z,-438.51
2019-03-05T09:02:29.448Z,-441.29
2019-03-05T09:03:29.724Z,-436.01
2019-03-05T09:04:30.001Z,-435.51
2019-03-05T09:05:30.366Z,-437.28
2019-03-05T09:06:30.597Z,-436.98
2019-03-05T09:07:30.861Z,-436.86
2019-03-05T09:08:31.228Z,-434.30
2019-03-05T09:09:31.506Z,-436.31
2019-03-05T09:10:31.733Z,-434.74
2019-03-05T09:11:31.993Z,-435.97
2019-03-05T09:12:32.243Z,-442.28
2019-03-05T09:13:33.125Z,-438.10
2019-03-05T09:14:34.352Z,-436.94
2019-03-05T09:15:33.084Z,-428.94
2019-03-05T09:16:33.479Z,-434.46
2019-03-05T09:17:33.619Z,-435.80
2019-03-05T09:18:33.975Z,-437.87
2019-03-05T09:19:34.192Z,-437.46
2019-03-05T09:20:34.425Z,-433.66
2019-03-05T09:21:34.760Z,-437.53
2019-03-05T09:22:35.046Z,-437.62
2019-03-05T09:23:35.312Z,-437.09
2019-03-05T09:24:35.636Z,-434.10
2019-03-05T09:25:35.788Z,-436.15
2019-03-05T09:26:36.126Z,-431.36
2019-03-05T09:27:36.410Z,-429.38
2019-03-05T09:28:36.669Z,-431.08
2019-03-05T09:29:36.963Z,-433.88
2019-03-05T09:30:37.216Z,-429.83
2019-03-05T09:31:37.516Z,-435.18
2019-03-05T09:32:37.786Z,-433.09
2019-03-05T09:33:38.032Z,-431.91
2019-03-05T09:34:38.349Z,-434.41
2019-03-05T09:35:38.638Z,-431.75
2019-03-05T09:36:49.882Z,-431.62
2019-03-05T09:37:40.141Z,-432.04
2019-03-05T09:38:39.458Z,-434.74
2019-03-05T09:39:39.749Z,-432.33
2019-03-05T09:40:40.033Z,-436.59
2019-03-05T09:41:40.408Z,-437.53
2019-03-05T09:42:40.536Z,-433.00
2019-03-05T09:43:40.828Z,-436.78
2019-03-05T09:44:41.126Z,-438.78
2019-03-05T09:45:41.453Z,-436.39
2019-03-05T09:46:41.696Z,-432.63
2019-03-05T09:47:41.931Z,-438.15
2019-03-05T09:48:42.196Z,-434.65
2019-03-05T09:49:42.620Z,-436.22
2019-03-05T09:50:42.756Z,-431.21
2019-03-05T09:51:43.064Z,-431.61
2019-03-05T09:52:51.337Z,-432.21
2019-03-05T09:53:44.571Z,-433.38
2019-03-05T09:54:43.884Z,-437.20
2019-03-05T09:55:44.144Z,-431.26
2019-03-05T09:56:44.434Z,-433.41
2019-03-05T09:57:44.738Z,-435.33
2019-03-05T09:58:44.944Z,-432.47
2019-03-05T09:59:45.254Z,-432.70
2019-03-05T10:00:45.526Z,-431.45
2019-03-05T10:01:45.823Z,-431.38
2019-03-05T10:02:46.097Z,-438.09
2019-03-05T10:03:46.379Z,-432.42
2019-03-05T10:04:46.666Z,-434.72
2019-03-05T10:05:46.951Z,-430.96
2019-03-05T10:06:47.230Z,-430.72
2019-03-05T10:07:47.488Z,-432.90
2019-03-05T10:08:47.757Z,-438.32
2019-03-05T10:09:48.054Z,-428.24
2019-03-05T10:10:48.302Z,-434.78
2019-03-05T10:11:56.202Z,-433.64
2019-03-05T10:12:49.881Z,-433.28
2019-03-05T10:13:49.193Z,-430.19
2019-03-05T10:14:49.477Z,-431.31
2019-03-05T10:15:49.681Z,-428.96
2019-03-05T10:16:49.981Z,-432.12
2019-03-05T10:17:50.295Z,-427.37
2019-03-05T10:18:50.532Z,-431.92
2019-03-05T10:19:50.833Z,-436.02
2019-03-05T10:20:51.094Z,-433.49
2019-03-05T10:21:51.396Z,-430.38
2019-03-05T10:22:51.788Z,-431.46
2019-03-05T10:23:51.950Z,-429.64
2019-03-05T10:24:52.217Z,-431.11
2019-03-05T10:25:52.469Z,-437.93
2019-03-05T10:26:52.727Z,-436.22
2019-03-05T10:27:53.024Z,-434.79
2019-03-05T10:28:53.313Z,-432.81
2019-03-05T10:29:53.603Z,-433.13
2019-03-05T10:30:53.957Z,-433.94
2019-03-05T10:31:54.115Z,-435.05
2019-03-05T10:32:54.631Z,-435.55
2019-03-05T10:33:54.680Z,-437.80
2019-03-05T10:34:54.969Z,-432.67
2019-03-05T10:35:55.232Z,-435.58
2019-03-05T10:36:55.516Z,-436.24
2019-03-05T10:37:55.814Z,-436.50
2019-03-05T10:38:57.627Z,-438.74
2019-03-05T10:39:56.333Z,-438.49
2019-03-05T10:40:56.599Z,-436.32
2019-03-05T10:41:56.883Z,-434.58
2019-03-05T10:43:07.773Z,-433.95
2019-03-05T10:43:58.434Z,-434.08
2019-03-05T10:44:57.700Z,-424.33
2019-03-05T10:46:25.935Z,-429.97
2019-03-05T10:52:19.304Z,-375.98
2019-03-05T10:53:14.826Z,-430.19
2019-03-05T10:54:31.186Z,-439.49
2019-03-05T10:55:50.900Z,-440.01
2019-03-05T10:56:47.340Z,-442.21
2019-03-05T10:59:55.454Z,-379.71
2019-03-05T11:00:55.744Z,-438.77
2019-03-05T11:01:59.837Z,-435.12
2019-03-05T11:03:06.878Z,-432.44
2019-03-05T11:04:03.993Z,-438.08
2019-03-05T11:05:00.809Z,-437.77
2019-03-05T11:06:05.971Z,-434.74
2019-03-05T11:07:04.634Z,-440.91
2019-03-05T11:08:23.281Z,-441.15
2019-03-05T11:09:28.090Z,-441.41
2019-03-05T11:12:22.835Z,-381.52
2019-03-05T11:13:23.808Z,-435.22
2019-03-05T11:14:32.229Z,-429.95
2019-03-05T11:15:42.877Z,-435.14
2019-03-05T11:20:13.421Z,-378.40
2019-03-05T11:21:13.278Z,-436.10
2019-03-05T11:22:13.573Z,-438.76
2019-03-05T11:23:13.809Z,-431.29
2019-03-05T11:24:15.877Z,-435.73
2019-03-05T11:25:48.164Z,-437.33
2019-03-05T11:26:30.582Z,-439.97
2019-03-05T11:27:49.779Z,-434.89
2019-03-05T11:28:21.497Z,-435.47
2019-03-05T11:29:39.514Z,-438.36
2019-03-05T11:30:19.035Z,-431.27
2019-03-05T11:31:17.379Z,-439.01
2019-03-05T11:32:17.133Z,-431.73
2019-03-05T11:33:25.636Z,-436.22
2019-03-05T11:34:22.522Z,-432.79
2019-03-05T11:35:22.449Z,-432.02
2019-03-05T11:36:19.749Z,-430.85
2019-03-05T11:37:21.007Z,-431.08
2019-03-05T11:38:19.953Z,-438.61
2019-03-05T11:39:23.823Z,-434.06
2019-03-05T11:40:21.430Z,-437.84
2019-03-05T11:41:26.568Z,-435.04
2019-03-05T11:42:48.950Z,-434.33
2019-03-05T11:43:22.611Z,-432.61
2019-03-05T11:44:26.404Z,-437.89
2019-03-05T11:45:19.944Z,-436.21
2019-03-05T11:46:22.921Z,-433.49
2019-03-05T11:47:20.484Z,-435.95
2019-03-05T11:48:22.711Z,-430.69
2019-03-05T11:49:25.881Z,-434.97
2019-03-05T11:50:22.342Z,-435.87
2019-03-05T11:51:25.885Z,-436.60
2019-03-05T11:52:26.417Z,-428.30
2019-03-05T11:53:28.505Z,-436.02
2019-03-05T11:54:25.968Z,-428.16
2019-03-05T11:55:24.384Z,-425.80
2019-03-05T11:56:26.211Z,-436.42
2019-03-05T11:57:24.273Z,-438.94
2019-03-05T11:58:23.664Z,-436.92
2019-03-05T11:59:23.846Z,-461.57
2019-03-05T12:00:24.156Z,-459.43
2019-03-05T12:01:24.381Z,-457.76
2019-03-05T12:02:24.693Z,-463.46
2019-03-05T12:03:24.951Z,-463.47
2019-03-05T12:04:25.223Z,-458.40
2019-03-05T12:05:25.547Z,-453.99
2019-03-05T12:06:25.939Z,-456.27
2019-03-05T12:07:26.100Z,-456.36
2019-03-05T12:08:26.350Z,-454.88
2019-03-05T12:09:26.632Z,-455.17
2019-03-05T12:10:26.935Z,-450.81
2019-03-05T12:11:27.200Z,-453.19
2019-03-05T12:12:27.479Z,-461.20
2019-03-05T12:13:27.762Z,-452.91
2019-03-05T12:14:28.133Z,-458.49
2019-03-05T12:15:28.323Z,-457.36
2019-03-05T12:16:28.591Z,-463.41
2019-03-05T12:17:28.887Z,-466.41
2019-03-05T12:18:29.140Z,-459.52
2019-03-05T12:19:29.424Z,-460.15
2019-03-05T12:20:29.729Z,-463.88
2019-03-05T12:21:30.223Z,-460.61
2019-03-05T12:22:31.480Z,-461.94
2019-03-05T12:23:33.483Z,-460.21
2019-03-05T12:24:30.792Z,-459.74
2019-03-05T12:25:31.106Z,-459.71
2019-03-05T12:26:31.357Z,-458.78
2019-03-05T12:27:31.655Z,-457.51
2019-03-05T12:28:31.926Z,-462.91
2019-03-05T12:29:32.192Z,-455.75
2019-03-05T12:30:32.479Z,-462.04
2019-03-05T12:31:34.467Z,-462.23
2019-03-05T12:32:33.044Z,-460.92